Benvolgut visitant, si us plau, ingressa Recuperar contrasenya
AVAMET paisatges
Union Alcoyana

Oriola La Campaneta

Dades diàries. Acumulats / Últims 30 dies disponibles

Data Temperatura (°C) Humitat rel. (%) Pressió rel. (hPa) Vent (km/h) Precipitació
Mínima Mitjana Màxima Amplitud
tèrmica
Mínima Mitjana Màxima Mínima Mitjana Màxima Predom. Mitjana Ràfega
màxima
Total
(mm)
Índex-n
Mínima Mitjana Màxima Mínima Mitjana Màxima n
0 a 1
P0 max
mm 5'
Dades mensuals acumulades fins l'últim dia disponible
05/2022 11,4 13,5 16,7 19,4 17,1 26,2 30,8 19,4   4,1 30,6 25,7
Dades anuals acumulades fins l'últim dia disponible
2022 1,8 9,5 18,2 14,0 10,7 19,9 30,8 29,0   5,4 54,7 248,9
Últims 30 dies disponibles
17-05-2022 16,7     23,2     30,8 14,1 SW 3,2 22,5 0,0
16-05-2022 16,2     23,0     29,9 13,7 WSW 3,5 22,5 0,0
15-05-2022 14,7     21,4     28,5 13,8 SW 3,5 22,5 0,0
14-05-2022 14,3     21,1     28,5 14,2 SSW 3,7 19,3 0,0
13-05-2022 14,7     20,5     27,4 12,7 WSW 4,2 20,9 0,0
12-05-2022 12,3     19,1     25,6 13,3 WNW 4,3 22,5 0,0
11-05-2022 12,0     19,3     26,8 14,8 SSE 3,3 24,1 0,0
10-05-2022 12,7     19,5     26,4 13,7 SW 4,2 19,3 0,0
09-05-2022 12,6     19,1     26,1 13,5 ENE 4,2 22,5 0,0
08-05-2022 11,9     19,2     27,6 15,7 SW 4,4 25,7 0,0
07-05-2022 12,4     18,8     26,1 13,7 WSW 4,2 25,7 0,0
06-05-2022 11,4     17,7     25,7 14,3 WNW 3,3 20,9 0,0
05-05-2022 13,4     18,3     24,0 10,6 NNW 5,6 25,7 0,0
04-05-2022 13,4     14,4     17,1 3,7 NNE 3,5 27,4 25,7
03-05-2022 12,2     17,1     24,1 11,9 WSW 5,2 30,6 0,0
02-05-2022 14,2     17,9     23,2 9,0 ENE 4,6 25,7 0,0
01-05-2022 13,6     19,4     27,4 13,8 W 5,4 24,1 0,0
30-04-2022 11,1     18,8     27,4 16,3 WSW 7,5 25,7 0,0
29-04-2022 11,3     16,8     22,9 11,6 W 6,1 24,1 0,0
28-04-2022 11,7     13,8     15,8 4,1 WSW 2,2 14,5 4,8
27-04-2022 13,1     14,7     18,1 5,0 W 2,7 16,1 1,8
26-04-2022 10,6     15,7     21,6 11,0 NNW 3,7 20,9 0,0
25-04-2022 10,9     16,6     23,3 12,4 WSW 3,4 19,3 0,0
24-04-2022 8,9     16,6     24,4 15,5 WSW 5,4 30,6 0,0
23-04-2022 12,1     16,5     21,4 9,3 W 11,4 49,9 0,3
22-04-2022 11,1     15,7     20,1 9,0 WSW 3,9 27,4 0,0
21-04-2022 12,5     16,6     22,1 9,6 NW 12,3 43,5 0,0
20-04-2022 10,6     13,6     16,0 5,4 NW 6,6 46,7 2,3
19-04-2022 13,4     17,4     22,6 9,2 NW 4,5 25,7 1,5
18-04-2022 12,8     17,7     24,7 11,9 WSW 3,1 20,9 0,0
Últims 13 mesos disponibles
04/2022 4,9 11,1 16,3 15,7 10,7 21,0 28,6 23,7 WSW 6,4 49,9 65,8
03/2022 6,4 10,5 18,2 13,8 13,2 18,2 22,3 15,9 ENE 6,3 43,5 135,5
02/2022 4,7 8,0 12,1 13,0 15,3 19,7 25,7 21,0 W 4,8 45,1 6,8
01/2022 1,8 6,0 15,0 10,5 11,6 17,0 23,0 21,2 W 4,9 54,7 15,1
12/2021 6,0 10,2 16,8 14,0 13,5 18,9 24,8 18,8 W 6,3 70,8 2,0
11/2021 6,7 9,8 14,3 14,0 13,8 19,4 25,1 18,4 W 6,1 54,7 24,3
10/2021 12,2 15,5 19,3 19,8 21,2 25,9 31,9 19,7 57 76 90 1.011 1.019 1.026 W 3,4 53,1 42,9
09/2021 16,0 20,4 23,9 25,1 26,6 31,1 35,3 19,3 55 73 83 1.012 1.016 1.023 W 4,0 33,8 21,1
08/2021 20,4 22,8 25,2 27,5 29,9 33,6 43,3 22,9 59 72 81 1.006 1.014 1.018 E 4,7 35,4 0,0
07/2021 19,2 21,3 23,9 26,9 29,3 33,3 42,6 23,4 50 70 83 1.008 1.014 1.020 E 4,6 37,0 19,9
06/2021 14,9 18,6 21,8 23,9 25,3 29,6 33,7 18,8 49 70 87 1.009 1.016 1.021 E 4,8 48,3 18,6
05/2021 11,7 15,1 18,3 20,4 20,0 26,3 35,7 24,0 42 68 88 1.008 1.016 1.023 WNW 5,5 45,1 79,7
04/2021 7,7 12,1 15,0 15,9 14,1 21,2 28,3 20,6 60 77 89 1.005 1.015 1.024 ENE 4,6 56,3 73,3
Tots els anys disponibles
2021 1,3 14,4 25,2 18,9 8,7 24,7 43,3 42,0 42 72 95 1.003 1.016 1.034 W 5,1 70,8 396,4
Temperatura (°C)
Humitat relativa (%)
Velocitat del vent i ràfega màxima (km/h)
Direcció del vent (°)
Pressió (hPa)
Precipitació (mm)
Nota sobre les dades: s'avisa a l'usuari de la provisionalitat i no oficialitat d'aquestes dades
Logo AVAMET blanc
Web allotjada a Sollutia
Llicència de Creative CommonsLa web d'AVAMET i els seus continguts estan subjectes a una llicència de
Reconeixement - No Comercial - Compartir igual
Avís legal - Política de privacitat - Política de cookies
NOVES ESTACIONS: Sant Mateu - IES Maestrat (Soci)  / el Palomar (Ajuntament/Soci) / Atzeneta del Maestrat - Pla de Meanes (Ajuntament/Soci) / Onda - Sant Gil (Soci) / Onda - Ràtils CR Cota 220 (Soci) / la Vila Joiosa (Ajuntament/Soci) / Miramar - Platja (Ajuntament/Soci) / Massanassa - IES Massanassa (Soci) / Culla - Pla de les Vinyes (Ajuntament/Soci) / Oliva - Col·legi - El Rebollet / Villena - Hondo de Carboneras (Soci) / Ontinyent - les Aigües (Soci) / Castelló de la Plana - IES Bovalar (Soci) /  Villena - las Quebradas (Soci) / la Salzadella (Ajuntament/Soci)  - - -